createdAt,value
2023-12-09T00:01:34.741Z,1.84
2023-12-09T00:04:01.805Z,1.90
2023-12-09T00:06:29.015Z,2.00
2023-12-09T00:08:56.160Z,1.92
2023-12-09T00:11:23.158Z,1.91
2023-12-09T00:13:50.145Z,1.92
2023-12-09T00:16:18.302Z,1.92
2023-12-09T00:18:45.386Z,1.89
2023-12-09T00:21:12.547Z,1.87
2023-12-09T00:23:47.312Z,1.87
2023-12-09T00:26:15.727Z,1.94
2023-12-09T00:28:42.863Z,1.94
2023-12-09T00:31:10.071Z,1.82
2023-12-09T00:33:37.414Z,1.88
2023-12-09T00:36:04.814Z,1.76
2023-12-09T00:38:31.745Z,1.82
2023-12-09T00:40:58.781Z,1.79
2023-12-09T00:43:25.662Z,1.94
2023-12-09T00:45:52.686Z,2.03
2023-12-09T00:48:19.737Z,2.04
2023-12-09T00:50:46.796Z,2.03
2023-12-09T00:53:13.992Z,2.17
2023-12-09T00:55:40.932Z,2.27
2023-12-09T00:58:07.979Z,2.17
2023-12-09T01:00:34.991Z,1.97
2023-12-09T01:03:02.000Z,1.79
2023-12-09T01:05:29.069Z,1.90
2023-12-09T01:07:56.018Z,1.92
2023-12-09T01:10:23.305Z,1.96
2023-12-09T01:12:50.370Z,2.08
2023-12-09T01:15:17.553Z,1.91
2023-12-09T01:17:44.505Z,1.82
2023-12-09T01:20:11.956Z,1.91
2023-12-09T01:22:38.821Z,2.02
2023-12-09T01:25:06.566Z,1.95
2023-12-09T01:27:33.572Z,1.93
2023-12-09T01:30:00.733Z,1.87
2023-12-09T01:32:28.037Z,1.80
2023-12-09T01:34:55.265Z,1.77
2023-12-09T01:37:22.291Z,1.84
2023-12-09T01:39:49.314Z,1.82
2023-12-09T01:42:16.306Z,1.95
2023-12-09T01:44:43.534Z,1.78
2023-12-09T01:47:13.705Z,1.73
2023-12-09T01:49:46.734Z,1.58
2023-12-09T01:52:16.318Z,1.70
2023-12-09T01:54:44.030Z,1.84
2023-12-09T01:57:15.420Z,1.90
2023-12-09T01:59:47.401Z,1.65
2023-12-09T02:02:14.892Z,1.49
2023-12-09T02:04:42.308Z,1.52
2023-12-09T02:07:09.421Z,1.42
2023-12-09T02:09:38.925Z,1.33
2023-12-09T02:12:27.710Z,1.39
2023-12-09T02:15:08.118Z,1.33
2023-12-09T02:17:43.931Z,1.35
2023-12-09T02:20:12.862Z,1.25
2023-12-09T02:22:39.782Z,1.22
2023-12-09T02:25:07.573Z,1.22
2023-12-09T02:27:49.134Z,1.28
2023-12-09T02:30:30.964Z,1.37
2023-12-09T02:33:00.646Z,1.40
2023-12-09T02:35:30.591Z,1.46
2023-12-09T02:38:02.789Z,1.44
2023-12-09T02:40:30.718Z,1.21
2023-12-09T02:42:57.871Z,1.27
2023-12-09T02:45:24.914Z,1.35
2023-12-09T02:47:52.002Z,1.28
2023-12-09T02:50:19.128Z,1.28
2023-12-09T02:52:46.193Z,1.28
2023-12-09T02:55:13.190Z,1.23
2023-12-09T02:57:40.219Z,1.25
2023-12-09T03:00:17.093Z,1.22
2023-12-09T03:02:44.822Z,1.32
2023-12-09T03:05:11.969Z,1.13
2023-12-09T03:07:39.110Z,1.15
2023-12-09T03:10:06.301Z,1.33
2023-12-09T03:12:33.355Z,1.20
2023-12-09T03:15:00.365Z,1.22
2023-12-09T03:17:27.306Z,1.26
2023-12-09T03:19:54.284Z,1.04
2023-12-09T03:22:21.299Z,1.13
2023-12-09T03:24:49.360Z,1.11
2023-12-09T03:27:16.361Z,1.26
2023-12-09T03:29:43.303Z,1.29
2023-12-09T03:32:10.220Z,1.20
2023-12-09T03:34:37.183Z,1.15
2023-12-09T03:37:04.402Z,1.10
2023-12-09T03:39:31.327Z,1.16
2023-12-09T03:41:58.307Z,1.16
2023-12-09T03:44:25.234Z,1.24
2023-12-09T03:46:52.251Z,1.16
2023-12-09T03:49:19.280Z,1.23
2023-12-09T03:51:46.490Z,1.07
2023-12-09T03:54:13.532Z,0.99
2023-12-09T03:56:40.636Z,0.89
2023-12-09T03:59:07.956Z,0.86
2023-12-09T04:01:34.997Z,0.93
2023-12-09T04:04:02.003Z,1.19
2023-12-09T04:06:29.212Z,1.14
2023-12-09T04:08:56.157Z,0.98
2023-12-09T04:11:23.170Z,1.11
2023-12-09T04:13:50.110Z,1.04
2023-12-09T04:16:17.052Z,1.16
2023-12-09T04:18:43.983Z,1.31
2023-12-09T04:21:11.169Z,1.19
2023-12-09T04:23:38.121Z,1.07
2023-12-09T04:26:06.172Z,0.87
2023-12-09T04:28:33.068Z,0.71
2023-12-09T04:31:03.123Z,0.85
2023-12-09T04:33:31.398Z,0.98
2023-12-09T04:35:58.550Z,0.94
2023-12-09T04:38:25.654Z,0.90
2023-12-09T04:40:52.515Z,0.96
2023-12-09T04:43:19.810Z,0.69
2023-12-09T04:45:46.842Z,0.75
2023-12-09T04:48:13.975Z,0.91
2023-12-09T04:50:40.987Z,1.00
2023-12-09T04:53:09.380Z,0.84
2023-12-09T04:55:36.324Z,1.02
2023-12-09T04:58:04.458Z,0.81
2023-12-09T05:00:31.438Z,0.54
2023-12-09T05:02:58.429Z,0.63
2023-12-09T05:05:26.169Z,0.68
2023-12-09T05:07:53.089Z,0.57
2023-12-09T05:10:20.101Z,0.61
2023-12-09T05:12:47.080Z,0.57
2023-12-09T05:15:14.236Z,0.50
2023-12-09T05:17:41.300Z,0.62
2023-12-09T05:20:11.283Z,0.72
2023-12-09T05:22:38.601Z,0.69
2023-12-09T05:25:06.070Z,0.76
2023-12-09T05:27:33.325Z,0.60
2023-12-09T05:30:00.609Z,0.48
2023-12-09T05:32:29.757Z,0.56
2023-12-09T05:34:56.788Z,0.77
2023-12-09T05:37:23.754Z,1.03
2023-12-09T05:39:50.638Z,1.05
2023-12-09T05:42:17.597Z,1.08
2023-12-09T05:44:44.679Z,1.13
2023-12-09T05:47:11.759Z,1.12
2023-12-09T05:49:38.728Z,1.10
2023-12-09T05:52:06.145Z,1.21
2023-12-09T05:54:33.504Z,1.27
2023-12-09T05:57:00.604Z,1.31
2023-12-09T05:59:27.620Z,1.28
2023-12-09T06:01:56.433Z,1.27
2023-12-09T06:04:23.495Z,1.23
2023-12-09T06:06:50.563Z,1.27
2023-12-09T06:09:17.516Z,1.28
2023-12-09T06:11:44.770Z,1.26
2023-12-09T06:14:11.795Z,1.18
2023-12-09T06:16:38.916Z,1.01
2023-12-09T06:19:05.826Z,1.18
2023-12-09T06:21:32.912Z,0.93
2023-12-09T06:23:59.846Z,0.88
2023-12-09T06:26:26.921Z,1.01
2023-12-09T06:28:53.899Z,0.92
2023-12-09T06:31:21.394Z,0.68
2023-12-09T06:33:48.484Z,0.73
2023-12-09T06:36:15.729Z,0.76
2023-12-09T06:38:42.797Z,0.90
2023-12-09T06:41:09.991Z,1.01
2023-12-09T06:43:36.947Z,0.95
2023-12-09T06:46:04.087Z,0.75
2023-12-09T06:48:31.190Z,0.74
2023-12-09T06:50:58.350Z,0.77
2023-12-09T06:53:25.238Z,0.74
2023-12-09T06:55:52.190Z,0.88
2023-12-09T06:58:19.461Z,1.10
2023-12-09T07:00:48.334Z,0.98
2023-12-09T07:03:15.753Z,0.68
2023-12-09T07:05:43.017Z,0.94
2023-12-09T07:08:12.095Z,0.90
2023-12-09T07:10:39.239Z,1.05
2023-12-09T07:13:06.303Z,0.95
2023-12-09T07:15:33.342Z,0.86
2023-12-09T07:18:00.518Z,0.93
2023-12-09T07:20:27.590Z,0.86
2023-12-09T07:22:54.565Z,0.76
2023-12-09T07:25:21.615Z,0.71
2023-12-09T07:27:48.638Z,0.78
2023-12-09T07:30:16.838Z,0.81
2023-12-09T07:32:44.085Z,0.90
2023-12-09T07:35:11.326Z,0.79
2023-12-09T07:37:38.236Z,1.06
2023-12-09T07:40:07.605Z,1.04
2023-12-09T07:42:34.524Z,0.91
2023-12-09T07:45:01.560Z,0.96
2023-12-09T07:47:28.489Z,1.00
2023-12-09T07:49:55.590Z,0.72
2023-12-09T07:52:22.484Z,0.75
2023-12-09T07:54:49.642Z,0.71
2023-12-09T07:57:16.638Z,0.43
2023-12-09T07:59:43.700Z,0.37
2023-12-09T08:02:10.632Z,0.36
2023-12-09T08:04:37.616Z,0.39
2023-12-09T08:07:07.014Z,0.29
2023-12-09T08:09:34.182Z,0.45
2023-12-09T08:12:01.088Z,0.35
2023-12-09T08:14:28.139Z,0.29
2023-12-09T08:16:55.166Z,0.26
2023-12-09T08:19:22.311Z,0.15
2023-12-09T08:21:49.276Z,0.26
2023-12-09T08:24:16.431Z,0.29
2023-12-09T08:26:43.666Z,0.16
2023-12-09T08:29:13.182Z,0.20
2023-12-09T08:31:40.376Z,0.38
2023-12-09T08:34:07.508Z,0.14
2023-12-09T08:36:34.681Z,0.10
2023-12-09T08:39:01.969Z,0.27
2023-12-09T08:41:30.857Z,0.21
2023-12-09T08:43:58.476Z,0.12
2023-12-09T08:46:25.582Z,0.28
2023-12-09T08:48:52.882Z,0.15
2023-12-09T08:51:23.060Z,0.18
2023-12-09T08:53:51.011Z,0.05
2023-12-09T08:56:18.172Z,0.21
2023-12-09T08:58:45.105Z,0.29
2023-12-09T09:01:13.794Z,0.06
2023-12-09T09:03:40.945Z,0.03
2023-12-09T09:06:08.128Z,0.02
2023-12-09T09:08:35.178Z,0.08
2023-12-09T09:11:02.349Z,0.28
2023-12-09T09:13:30.354Z,0.44
2023-12-09T09:15:57.423Z,0.20
2023-12-09T09:18:24.749Z,0.22
2023-12-09T09:20:51.899Z,0.14
2023-12-09T09:23:18.998Z,0.07
2023-12-09T09:25:46.065Z,0.13
2023-12-09T09:28:13.516Z,0.32
2023-12-09T09:30:40.488Z,0.47
2023-12-09T09:33:07.907Z,0.56
2023-12-09T09:35:35.126Z,0.69
2023-12-09T09:38:02.204Z,0.58
2023-12-09T09:40:29.106Z,0.67
2023-12-09T09:43:06.421Z,0.56
2023-12-09T09:45:34.179Z,0.42
2023-12-09T09:48:07.087Z,0.61
2023-12-09T09:50:43.232Z,0.54
2023-12-09T09:53:21.432Z,0.95
2023-12-09T09:55:49.255Z,0.90
2023-12-09T09:58:17.744Z,0.73
2023-12-09T10:00:45.347Z,0.83
2023-12-09T10:03:12.716Z,1.16
2023-12-09T10:05:40.297Z,1.18
2023-12-09T10:08:07.581Z,1.33
2023-12-09T10:10:35.987Z,1.23
2023-12-09T10:13:03.107Z,1.28
2023-12-09T10:15:30.286Z,1.19
2023-12-09T10:18:06.882Z,1.28
2023-12-09T10:20:36.290Z,1.13
2023-12-09T10:23:03.508Z,1.46
2023-12-09T10:25:30.834Z,1.26
2023-12-09T10:27:59.047Z,1.09
2023-12-09T10:30:26.443Z,1.24
2023-12-09T10:32:54.245Z,1.06
2023-12-09T10:35:21.871Z,1.17
2023-12-09T10:37:52.409Z,1.11
2023-12-09T10:40:22.938Z,1.23
2023-12-09T10:42:51.905Z,1.18
2023-12-09T10:45:18.995Z,1.14
2023-12-09T10:47:48.776Z,1.00
2023-12-09T10:50:15.961Z,0.97
2023-12-09T10:52:43.069Z,0.89
2023-12-09T10:55:10.273Z,0.90
2023-12-09T10:57:37.575Z,0.82
2023-12-09T11:00:12.594Z,0.84
2023-12-09T11:02:42.756Z,0.64
2023-12-09T11:05:13.455Z,0.73
2023-12-09T11:07:41.653Z,0.67
2023-12-09T11:10:10.392Z,0.82
2023-12-09T11:12:37.663Z,0.99
2023-12-09T11:15:33.701Z,1.06
2023-12-09T11:18:11.937Z,0.90
2023-12-09T11:20:42.867Z,0.75
2023-12-09T11:23:11.874Z,0.85
2023-12-09T11:25:44.013Z,0.83
2023-12-09T11:28:13.452Z,0.86
2023-12-09T11:30:43.354Z,0.96
2023-12-09T11:33:11.079Z,1.26
2023-12-09T11:35:39.533Z,1.27
2023-12-09T11:38:09.396Z,1.23
2023-12-09T11:40:38.013Z,1.12
2023-12-09T11:43:05.425Z,1.02
2023-12-09T11:45:32.916Z,1.03
2023-12-09T11:48:01.909Z,1.39
2023-12-09T11:50:30.586Z,1.35
2023-12-09T11:52:57.806Z,1.48
2023-12-09T11:55:24.981Z,1.43
2023-12-09T11:57:51.944Z,1.45
2023-12-09T12:00:20.346Z,1.17
2023-12-09T12:02:49.938Z,1.45
2023-12-09T12:05:17.490Z,1.30
2023-12-09T12:07:44.557Z,1.49
2023-12-09T12:10:11.901Z,1.70
2023-12-09T12:12:38.975Z,1.46
2023-12-09T12:15:06.667Z,1.41
2023-12-09T12:17:40.950Z,1.17
2023-12-09T12:22:56.990Z,1.71
2023-12-09T12:25:26.700Z,1.70
2023-12-09T12:27:58.229Z,1.65
2023-12-09T12:30:25.486Z,1.47
2023-12-09T12:32:57.831Z,1.25
2023-12-09T12:35:26.375Z,1.23
2023-12-09T12:37:56.029Z,1.41
2023-12-09T12:40:23.163Z,1.60
2023-12-09T12:42:51.573Z,1.35
2023-12-09T12:45:20.065Z,1.13
2023-12-09T12:47:48.505Z,1.06
2023-12-09T12:50:19.248Z,1.35
2023-12-09T12:52:47.119Z,1.59
2023-12-09T12:55:14.397Z,1.39
2023-12-09T12:57:42.078Z,1.34
2023-12-09T13:00:12.559Z,1.23
2023-12-09T13:02:40.111Z,1.29
2023-12-09T13:05:08.250Z,1.39
2023-12-09T13:07:35.319Z,1.44
2023-12-09T13:10:02.343Z,1.30
2023-12-09T13:12:29.742Z,1.26
2023-12-09T13:14:57.726Z,1.35
2023-12-09T13:17:24.773Z,1.44
2023-12-09T13:19:51.814Z,1.70
2023-12-09T13:22:19.034Z,1.86
2023-12-09T13:24:46.329Z,1.52
2023-12-09T13:27:14.304Z,1.45
2023-12-09T13:29:41.257Z,1.38
2023-12-09T13:32:08.372Z,1.45
2023-12-09T13:34:35.360Z,1.46
2023-12-09T13:37:02.569Z,1.54
2023-12-09T13:39:29.692Z,1.36
2023-12-09T13:41:56.688Z,1.34
2023-12-09T13:44:23.597Z,1.38
2023-12-09T13:46:50.667Z,1.42
2023-12-09T13:49:17.893Z,1.59
2023-12-09T13:51:45.004Z,1.72
2023-12-09T13:54:12.442Z,1.75
2023-12-09T13:56:40.924Z,1.71
2023-12-09T13:59:07.942Z,1.37
2023-12-09T14:01:35.080Z,1.53
2023-12-09T14:04:02.669Z,1.42
2023-12-09T14:06:29.747Z,1.40
2023-12-09T14:08:56.755Z,1.43
2023-12-09T14:11:27.076Z,1.19
2023-12-09T14:13:55.859Z,1.14
2023-12-09T14:16:23.265Z,1.06
2023-12-09T14:18:50.597Z,1.11
2023-12-09T14:21:17.762Z,1.06
2023-12-09T14:23:44.770Z,1.23
2023-12-09T14:26:11.716Z,1.51
2023-12-09T14:28:38.816Z,1.40
2023-12-09T14:31:06.922Z,1.29
2023-12-09T14:33:39.557Z,1.27
2023-12-09T14:36:10.266Z,1.25
2023-12-09T14:38:37.420Z,1.13
2023-12-09T14:41:04.675Z,1.12
2023-12-09T14:43:31.738Z,0.98
2023-12-09T14:45:58.996Z,1.10
2023-12-09T14:48:28.829Z,1.16
2023-12-09T14:50:57.203Z,1.06
2023-12-09T14:53:24.304Z,0.85
2023-12-09T14:55:51.721Z,0.88
2023-12-09T14:58:19.574Z,1.10
2023-12-09T15:00:51.033Z,1.00
2023-12-09T15:03:18.769Z,0.96
2023-12-09T15:05:45.815Z,0.93
2023-12-09T15:08:13.464Z,1.11
2023-12-09T15:10:40.831Z,1.10
2023-12-09T15:13:07.918Z,1.08
2023-12-09T15:15:34.951Z,1.05
2023-12-09T15:18:02.180Z,0.97
2023-12-09T15:20:29.185Z,1.08
2023-12-09T15:22:58.120Z,1.05
2023-12-09T15:25:25.306Z,1.10
2023-12-09T15:27:52.748Z,1.13
2023-12-09T15:30:20.491Z,1.15
2023-12-09T15:32:48.377Z,1.13
2023-12-09T15:35:15.432Z,0.96
2023-12-09T15:37:43.737Z,1.02
2023-12-09T15:40:12.466Z,1.06
2023-12-09T15:42:39.586Z,1.20
2023-12-09T15:45:07.075Z,1.23
2023-12-09T15:47:34.173Z,1.00
2023-12-09T15:50:02.213Z,1.03
2023-12-09T15:52:29.446Z,1.07
2023-12-09T15:54:56.846Z,0.81
2023-12-09T15:57:24.253Z,0.75
2023-12-09T15:59:54.735Z,0.84
2023-12-09T16:02:22.512Z,0.86
2023-12-09T16:04:49.524Z,0.84
2023-12-09T16:07:17.005Z,0.90
2023-12-09T16:09:51.737Z,0.97
2023-12-09T16:12:21.738Z,0.89
2023-12-09T16:14:53.204Z,0.77
2023-12-09T16:17:20.804Z,0.75
2023-12-09T16:19:47.884Z,0.70
2023-12-09T16:22:15.202Z,0.69
2023-12-09T16:24:42.210Z,0.77
2023-12-09T16:27:10.121Z,0.64
2023-12-09T16:29:37.147Z,0.95
2023-12-09T16:32:06.556Z,0.93
2023-12-09T16:34:35.333Z,0.83
2023-12-09T16:37:02.556Z,0.89
2023-12-09T16:39:29.572Z,0.97
2023-12-09T16:41:56.609Z,0.95
2023-12-09T16:44:24.291Z,0.92
2023-12-09T16:46:52.992Z,0.90
2023-12-09T16:49:20.279Z,0.82
2023-12-09T16:51:47.488Z,0.93
2023-12-09T16:54:14.574Z,1.08
2023-12-09T16:56:41.821Z,1.07
2023-12-09T16:59:12.137Z,0.99
2023-12-09T17:01:41.990Z,0.90
2023-12-09T17:04:09.667Z,0.91
2023-12-09T17:06:37.072Z,0.79
2023-12-09T17:09:04.185Z,0.80
2023-12-09T17:11:31.349Z,0.76
2023-12-09T17:13:58.292Z,0.58
2023-12-09T17:16:26.042Z,0.53
2023-12-09T17:18:53.179Z,0.54
2023-12-09T17:21:20.999Z,0.52
2023-12-09T17:23:48.367Z,0.44
2023-12-09T17:26:15.540Z,0.44
2023-12-09T17:28:42.875Z,0.50
2023-12-09T17:31:09.907Z,0.52
2023-12-09T17:33:39.241Z,0.45
2023-12-09T17:36:06.720Z,0.52
2023-12-09T17:38:33.891Z,0.48
2023-12-09T17:41:00.925Z,0.55
2023-12-09T17:43:27.936Z,0.71
2023-12-09T17:45:55.507Z,0.68
2023-12-09T17:48:25.144Z,0.73
2023-12-09T17:50:52.552Z,0.74
2023-12-09T17:53:21.546Z,0.66
2023-12-09T17:55:49.777Z,0.90
2023-12-09T17:58:17.640Z,0.91
2023-12-09T18:00:44.916Z,1.00
2023-12-09T18:03:12.151Z,0.88
2023-12-09T18:05:39.317Z,0.82
2023-12-09T18:08:06.854Z,0.81
2023-12-09T18:10:34.016Z,0.86
2023-12-09T18:13:01.091Z,0.91
2023-12-09T18:15:28.166Z,0.98
2023-12-09T18:17:55.391Z,1.01
2023-12-09T18:20:22.558Z,0.93
2023-12-09T18:22:49.606Z,0.88
2023-12-09T18:25:16.727Z,0.97
2023-12-09T18:27:44.268Z,1.04
2023-12-09T18:30:11.656Z,1.04
2023-12-09T18:32:39.981Z,1.07
2023-12-09T18:35:10.681Z,0.79
2023-12-09T18:37:38.943Z,1.03
2023-12-09T18:40:11.368Z,0.99
2023-12-09T18:42:38.823Z,0.78
2023-12-09T18:45:06.937Z,0.63
2023-12-09T18:47:36.097Z,0.64
2023-12-09T18:50:04.552Z,0.78
2023-12-09T18:52:32.724Z,0.87
2023-12-09T18:55:00.147Z,0.82
2023-12-09T18:57:27.260Z,0.82
2023-12-09T18:59:54.215Z,1.03
2023-12-09T19:02:21.379Z,1.00
2023-12-09T19:04:50.683Z,0.92
2023-12-09T19:07:19.564Z,0.91
2023-12-09T19:09:46.978Z,0.95
2023-12-09T19:12:14.235Z,0.96
2023-12-09T19:14:41.313Z,0.96
2023-12-09T19:17:08.924Z,1.07
2023-12-09T19:19:36.134Z,1.06
2023-12-09T19:22:04.614Z,0.98
2023-12-09T19:24:31.716Z,1.04
2023-12-09T19:26:58.992Z,1.07
2023-12-09T19:29:26.212Z,1.16
2023-12-09T19:31:53.246Z,1.06
2023-12-09T19:34:20.495Z,0.96
2023-12-09T19:36:48.020Z,0.96
2023-12-09T19:39:18.020Z,0.96
2023-12-09T19:41:45.356Z,0.96
2023-12-09T19:44:12.369Z,1.13
2023-12-09T19:46:39.417Z,1.21
2023-12-09T19:49:07.019Z,1.06
2023-12-09T19:51:34.213Z,1.08
2023-12-09T19:54:01.293Z,1.03
2023-12-09T19:56:30.452Z,0.95
2023-12-09T19:58:57.432Z,0.76
2023-12-09T20:01:24.554Z,0.80
2023-12-09T20:03:51.919Z,0.82
2023-12-09T20:06:19.497Z,0.93
2023-12-09T20:08:46.644Z,0.90
2023-12-09T20:11:14.206Z,0.83
2023-12-09T20:13:41.243Z,0.90
2023-12-09T20:16:09.268Z,1.01
2023-12-09T20:18:36.285Z,0.90
2023-12-09T20:21:03.663Z,0.86
2023-12-09T20:23:30.717Z,1.00
2023-12-09T20:25:57.835Z,0.91
2023-12-09T20:28:24.914Z,1.01
2023-12-09T20:30:54.125Z,1.04
2023-12-09T20:33:22.247Z,1.13
2023-12-09T20:35:49.696Z,1.07
2023-12-09T20:38:17.157Z,1.09
2023-12-09T20:40:45.787Z,1.14
2023-12-09T20:43:12.958Z,1.07
2023-12-09T20:45:40.283Z,0.99
2023-12-09T20:48:07.374Z,0.96
2023-12-09T20:50:34.543Z,0.70
2023-12-09T20:53:02.907Z,0.87
2023-12-09T20:55:29.958Z,0.89
2023-12-09T20:57:56.954Z,0.93
2023-12-09T21:00:24.187Z,0.71
2023-12-09T21:02:51.176Z,0.77
2023-12-09T21:05:19.724Z,0.78
2023-12-09T21:07:48.670Z,0.74
2023-12-09T21:10:15.748Z,0.73
2023-12-09T21:12:42.793Z,0.54
2023-12-09T21:15:09.874Z,0.51
2023-12-09T21:17:36.862Z,0.71
2023-12-09T21:20:04.268Z,0.67
2023-12-09T21:22:31.843Z,1.01
2023-12-09T21:24:59.206Z,0.83
2023-12-09T21:27:26.255Z,0.72
2023-12-09T21:29:53.651Z,0.89
2023-12-09T21:32:20.713Z,0.70
2023-12-09T21:34:48.084Z,0.62
2023-12-09T21:37:15.247Z,0.72
2023-12-09T21:39:42.266Z,0.70
2023-12-09T21:42:09.576Z,0.68
2023-12-09T21:44:36.750Z,0.66
2023-12-09T21:47:04.103Z,0.72
2023-12-09T21:49:31.300Z,0.58
2023-12-09T21:51:58.841Z,0.60
2023-12-09T21:54:25.945Z,0.67
2023-12-09T21:56:52.881Z,0.53
2023-12-09T21:59:19.884Z,0.43
2023-12-09T22:01:49.804Z,0.42
2023-12-09T22:04:21.549Z,0.43
2023-12-09T22:06:48.828Z,0.38
2023-12-09T22:09:19.332Z,0.46
2023-12-09T22:11:46.459Z,0.55
2023-12-09T22:14:13.471Z,0.57
2023-12-09T22:16:42.815Z,0.67
2023-12-09T22:19:10.151Z,0.72
2023-12-09T22:21:45.039Z,0.69
2023-12-09T22:24:12.584Z,0.77
2023-12-09T22:26:47.299Z,0.80
2023-12-09T22:29:14.432Z,0.69
2023-12-09T22:31:42.996Z,0.69
2023-12-09T22:34:11.984Z,0.67
2023-12-09T22:36:42.937Z,0.57
2023-12-09T22:39:13.512Z,0.71
2023-12-09T22:41:40.975Z,0.89
2023-12-09T22:44:08.110Z,0.84
2023-12-09T22:46:35.272Z,0.78
2023-12-09T22:49:08.069Z,0.62
2023-12-09T22:51:37.307Z,0.64
2023-12-09T22:54:04.679Z,0.44
2023-12-09T22:56:32.390Z,0.53
2023-12-09T22:59:00.007Z,0.50
2023-12-09T23:01:31.346Z,0.33
2023-12-09T23:03:58.461Z,0.36
2023-12-09T23:06:25.856Z,0.39
2023-12-09T23:08:53.465Z,0.35
2023-12-09T23:11:21.110Z,0.41
2023-12-09T23:13:51.099Z,0.59
2023-12-09T23:16:18.169Z,0.56
2023-12-09T23:18:45.481Z,0.60
2023-12-09T23:21:12.588Z,0.70
2023-12-09T23:23:40.130Z,0.64
2023-12-09T23:26:07.485Z,0.59
2023-12-09T23:28:34.952Z,0.58
2023-12-09T23:31:03.860Z,0.68
2023-12-09T23:33:32.266Z,0.70
2023-12-09T23:35:59.638Z,0.61
2023-12-09T23:38:26.669Z,0.61
2023-12-09T23:40:53.736Z,0.59
2023-12-09T23:43:20.681Z,0.68
2023-12-09T23:45:47.815Z,0.61
2023-12-09T23:48:19.000Z,0.62
2023-12-09T23:50:46.332Z,0.71
2023-12-09T23:53:14.683Z,0.68
2023-12-09T23:55:41.870Z,0.58
2023-12-09T23:58:09.783Z,0.56
